TimeCDT,TemperatureF,Dew PointF,Humidity,Sea Level PressureIn,VisibilityMPH,Wind Direction,Wind SpeedMPH,Gust SpeedMPH,PrecipitationIn,Events,Conditions,WindDirDegrees,DateUTC
12:15 AM,58.6,50.9,75,30.07,10.0,West,6.9,-,N/A,,Clear,280,2012-10-15 05:15:00
12:35 AM,59.2,50.9,74,30.08,10.0,WNW,5.8,-,N/A,,Clear,290,2012-10-15 05:35:00
12:55 AM,59.9,50.5,71,30.08,10.0,WNW,3.5,-,N/A,,Clear,290,2012-10-15 05:55:00
1:15 AM,59.0,50.5,73,30.08,10.0,WNW,4.6,-,N/A,,Clear,290,2012-10-15 06:15:00
1:35 AM,58.1,50.5,76,30.07,10.0,WNW,4.6,-,N/A,,Clear,300,2012-10-15 06:35:00
1:55 AM,58.1,50.5,76,30.08,10.0,NW,3.5,-,N/A,,Clear,320,2012-10-15 06:55:00
2:15 AM,58.3,50.2,74,30.08,10.0,NNW,3.5,-,N/A,,Clear,330,2012-10-15 07:15:00
2:35 AM,58.5,50.0,73,30.07,10.0,NNW,3.5,-,N/A,,Clear,330,2012-10-15 07:35:00
2:55 AM,57.9,49.5,73,30.06,10.0,NW,3.5,-,N/A,,Clear,320,2012-10-15 07:55:00
3:15 AM,56.8,49.6,77,30.06,10.0,NNW,3.5,-,N/A,,Clear,340,2012-10-15 08:15:00
3:35 AM,56.7,49.3,76,30.06,10.0,NW,3.5,-,N/A,,Clear,320,2012-10-15 08:35:00
3:55 AM,55.4,49.3,80,30.06,10.0,NW,3.5,-,N/A,,Clear,320,2012-10-15 08:55:00
4:15 AM,56.3,48.6,75,30.06,10.0,Calm,Calm,-,N/A,,Clear,0,2012-10-15 09:15:00
4:55 AM,56.8,48.0,72,30.06,10.0,Calm,Calm,-,N/A,,Clear,0,2012-10-15 09:55:00
5:15 AM,55.9,48.4,76,30.06,10.0,Calm,Calm,-,N/A,,Clear,0,2012-10-15 10:15:00
5:55 AM,53.1,48.6,85,30.06,10.0,Calm,Calm,-,N/A,,Clear,0,2012-10-15 10:55:00
6:15 AM,53.2,48.6,84,30.07,10.0,Calm,Calm,-,N/A,,Clear,0,2012-10-15 11:15:00
6:35 AM,52.0,48.7,89,30.06,10.0,Calm,Calm,-,N/A,,Clear,0,2012-10-15 11:35:00
6:55 AM,52.0,49.1,90,30.07,10.0,Calm,Calm,-,N/A,,Clear,0,2012-10-15 11:55:00
7:15 AM,51.3,49.1,92,30.07,10.0,West,4.6,-,N/A,,Clear,280,2012-10-15 12:15:00
7:35 AM,50.9,49.1,94,30.08,10.0,West,4.6,-,N/A,,Clear,270,2012-10-15 12:35:00
7:55 AM,51.8,50.0,94,30.09,10.0,West,5.8,-,N/A,,Clear,280,2012-10-15 12:55:00
8:15 AM,53.1,50.4,91,30.10,10.0,WNW,4.6,-,N/A,,Clear,300,2012-10-15 13:15:00
8:35 AM,55.0,50.9,86,30.10,10.0,NNW,4.6,-,N/A,,Clear,330,2012-10-15 13:35:00
8:55 AM,57.6,52.2,82,30.10,10.0,NW,3.5,-,N/A,,Clear,310,2012-10-15 13:55:00
9:15 AM,58.6,52.2,79,30.10,10.0,NNW,4.6,-,N/A,,Clear,340,2012-10-15 14:15:00
9:35 AM,60.8,52.7,75,30.11,10.0,Calm,Calm,-,N/A,,Clear,0,2012-10-15 14:35:00
9:55 AM,63.1,53.1,70,30.10,10.0,Calm,Calm,-,N/A,,Clear,0,2012-10-15 14:55:00
10:15 AM,66.0,52.9,63,30.10,10.0,Calm,Calm,-,N/A,,Clear,0,2012-10-15 15:15:00
10:35 AM,68.2,52.2,56,30.10,10.0,Calm,Calm,-,N/A,,Clear,0,2012-10-15 15:35:00
10:55 AM,70.9,52.5,52,30.10,10.0,WNW,3.5,-,N/A,,Clear,300,2012-10-15 15:55:00
11:15 AM,73.2,50.4,44,30.10,10.0,WNW,3.5,-,N/A,,Clear,300,2012-10-15 16:15:00
11:35 AM,74.3,50.9,44,30.09,10.0,Calm,Calm,-,N/A,,Clear,0,2012-10-15 16:35:00
11:55 AM,75.9,49.5,39,30.08,10.0,Calm,Calm,-,N/A,,Clear,0,2012-10-15 16:55:00
12:15 PM,77.4,50.0,38,30.08,10.0,West,3.5,-,N/A,,Clear,270,2012-10-15 17:15:00
12:35 PM,78.3,51.1,39,30.07,10.0,Calm,Calm,-,N/A,,Clear,0,2012-10-15 17:35:00
12:55 PM,79.2,51.3,38,30.06,10.0,Calm,Calm,-,N/A,,Clear,0,2012-10-15 17:55:00
1:15 PM,79.9,49.3,34,30.05,10.0,West,4.6,-,N/A,,Clear,280,2012-10-15 18:15:00
1:35 PM,80.2,51.3,36,30.04,10.0,WSW,4.6,-,N/A,,Clear,240,2012-10-15 18:35:00
1:55 PM,80.4,51.4,36,30.02,5.0,WSW,5.8,-,N/A,,Haze,240,2012-10-15 18:55:00
2:15 PM,80.8,50.0,34,30.01,10.0,WSW,6.9,-,N/A,,Clear,250,2012-10-15 19:15:00
2:35 PM,80.6,47.3,31,30.00,10.0,West,3.5,-,N/A,,Clear,280,2012-10-15 19:35:00
2:55 PM,81.0,46.6,30,29.99,10.0,WSW,4.6,-,N/A,,Clear,250,2012-10-15 19:55:00
3:15 PM,81.0,45.9,29,29.98,10.0,Calm,Calm,-,N/A,,Clear,0,2012-10-15 20:15:00
3:35 PM,81.3,45.1,28,29.98,10.0,SSE,3.5,-,N/A,,Clear,160,2012-10-15 20:35:00
3:55 PM,81.0,45.0,28,29.97,10.0,SW,5.8,-,N/A,,Clear,220,2012-10-15 20:55:00
4:15 PM,81.5,47.3,30,29.97,10.0,SW,4.6,-,N/A,,Clear,220,2012-10-15 21:15:00
4:35 PM,81.1,46.6,30,29.97,10.0,West,6.9,-,N/A,,Clear,260,2012-10-15 21:35:00
4:55 PM,80.8,46.6,30,29.97,10.0,SW,6.9,-,N/A,,Clear,220,2012-10-15 21:55:00
5:15 PM,80.4,47.5,31,29.96,10.0,WSW,4.6,-,N/A,,Clear,250,2012-10-15 22:15:00
5:35 PM,79.7,47.3,32,29.96,10.0,SW,3.5,-,N/A,,Clear,220,2012-10-15 22:35:00
5:55 PM,78.6,48.0,34,29.96,10.0,SW,3.5,-,N/A,,Clear,230,2012-10-15 22:55:00
6:15 PM,76.3,49.1,38,29.96,10.0,SW,3.5,-,N/A,,Clear,230,2012-10-15 23:15:00
6:35 PM,74.7,48.0,39,29.96,10.0,SW,3.5,-,N/A,,Clear,230,2012-10-15 23:35:00
6:55 PM,74.1,46.6,37,29.96,10.0,Calm,Calm,-,N/A,,Clear,0,2012-10-15 23:55:00
7:15 PM,71.6,50.0,46,29.96,10.0,South,3.5,-,N/A,,Clear,180,2012-10-16 00:15:00
7:35 PM,70.2,50.2,49,29.96,10.0,SSW,5.8,-,N/A,,Clear,200,2012-10-16 00:35:00
7:55 PM,69.4,48.9,48,29.97,10.0,SSW,5.8,-,N/A,,Clear,200,2012-10-16 00:55:00
8:15 PM,68.4,48.9,50,29.97,10.0,SSW,5.8,-,N/A,,Clear,200,2012-10-16 01:15:00
8:35 PM,67.6,48.2,50,29.98,10.0,SSW,6.9,-,N/A,,Clear,200,2012-10-16 01:35:00
8:55 PM,67.1,48.2,51,29.98,10.0,South,5.8,-,N/A,,Clear,190,2012-10-16 01:55:00
9:15 PM,66.2,47.8,52,29.98,10.0,South,5.8,-,N/A,,Clear,190,2012-10-16 02:15:00
9:35 PM,65.5,48.2,54,29.98,10.0,South,5.8,-,N/A,,Clear,190,2012-10-16 02:35:00
9:55 PM,65.5,47.7,53,29.99,10.0,SSW,5.8,-,N/A,,Clear,200,2012-10-16 02:55:00
10:15 PM,65.1,47.8,54,29.99,10.0,South,5.8,-,N/A,,Clear,190,2012-10-16 03:15:00
10:35 PM,64.6,47.7,54,29.99,10.0,SSW,5.8,-,N/A,,Clear,200,2012-10-16 03:35:00
10:55 PM,64.4,47.3,54,29.99,10.0,SSW,5.8,-,N/A,,Clear,200,2012-10-16 03:55:00
11:15 PM,63.9,46.9,54,29.99,10.0,SSW,5.8,-,N/A,,Clear,200,2012-10-16 04:15:00
11:35 PM,63.5,46.8,54,29.98,10.0,SSW,5.8,-,N/A,,Clear,200,2012-10-16 04:35:00
11:55 PM,63.5,46.8,54,29.98,10.0,South,5.8,-,N/A,,Clear,190,2012-10-16 04:55:00